createdAt,value
2022-08-04T00:00:05.265Z,1.00
2022-08-04T00:02:47.267Z,1.00
2022-08-04T00:05:30.455Z,1.00
2022-08-04T00:08:26.743Z,1.00
2022-08-04T00:10:59.448Z,1.00
2022-08-04T00:13:28.964Z,1.00
2022-08-04T00:15:59.172Z,1.30
2022-08-04T00:18:40.256Z,1.00
2022-08-04T00:21:10.301Z,1.00
2022-08-04T00:24:10.803Z,1.00
2022-08-04T00:26:33.129Z,1.00
2022-08-04T00:29:01.073Z,1.90
2022-08-04T00:31:53.906Z,1.40
2022-08-04T00:34:15.627Z,1.70
2022-08-04T00:36:45.539Z,2.90
2022-08-04T00:39:16.970Z,3.00
2022-08-04T00:42:24.237Z,3.30
2022-08-04T00:45:08.883Z,4.10
2022-08-04T00:48:01.747Z,5.40
2022-08-04T00:50:50.136Z,5.90
2022-08-04T00:53:29.664Z,7.00
2022-08-04T00:56:16.839Z,8.90
2022-08-04T00:59:02.661Z,11.10
2022-08-04T01:01:43.338Z,11.60
2022-08-04T01:04:13.117Z,10.60
2022-08-04T01:07:05.681Z,10.20
2022-08-04T01:09:51.794Z,8.90
2022-08-04T01:12:27.565Z,11.10
2022-08-04T01:15:07.698Z,11.30
2022-08-04T01:17:43.093Z,12.10
2022-08-04T01:20:11.607Z,12.80
2022-08-04T01:22:56.731Z,16.10
2022-08-04T01:25:39.133Z,18.90
2022-08-04T01:28:27.565Z,19.00
2022-08-04T01:30:58.318Z,18.10
2022-08-04T01:33:30.077Z,17.20
2022-08-04T01:36:06.543Z,17.60
2022-08-04T01:38:39.540Z,19.10
2022-08-04T01:41:13.370Z,21.40
2022-08-04T01:43:45.249Z,22.30
2022-08-04T01:46:15.171Z,19.10
2022-08-04T01:48:46.547Z,21.20
2022-08-04T01:51:13.942Z,23.40
2022-08-04T01:53:42.621Z,24.60
2022-08-04T01:56:11.094Z,25.10
2022-08-04T01:58:40.330Z,25.50
2022-08-04T02:01:10.353Z,25.70
2022-08-04T02:04:20.824Z,29.80
2022-08-04T02:06:40.953Z,30.10
2022-08-04T02:09:30.806Z,37.50
2022-08-04T02:12:26.261Z,42.20
2022-08-04T02:14:57.589Z,46.90
2022-08-04T02:18:01.745Z,42.10
2022-08-04T02:20:43.436Z,37.50
2022-08-04T02:23:15.125Z,37.20
2022-08-04T02:25:53.544Z,38.20
2022-08-04T02:28:53.187Z,39.60
2022-08-04T02:31:41.071Z,45.90
2022-08-04T02:34:28.728Z,48.00
2022-08-04T02:36:57.799Z,55.50
2022-08-04T02:39:31.227Z,57.60
2022-08-04T02:42:10.890Z,60.00
2022-08-04T02:44:39.702Z,62.60
2022-08-04T02:47:07.968Z,59.60
2022-08-04T02:49:38.549Z,56.80
2022-08-04T02:52:12.668Z,54.70
2022-08-04T02:54:45.144Z,59.20
2022-08-04T02:57:14.254Z,60.50
2022-08-04T03:00:13.450Z,61.00
2022-08-04T03:03:06.156Z,61.50
2022-08-04T03:06:01.245Z,61.60
2022-08-04T03:09:01.865Z,63.50
2022-08-04T03:11:52.805Z,64.00
2022-08-04T03:14:53.951Z,64.50
2022-08-04T03:17:52.976Z,64.40
2022-08-04T03:20:57.052Z,63.40
2022-08-04T03:23:35.836Z,62.60
2022-08-04T03:26:21.392Z,61.90
2022-08-04T03:29:06.839Z,63.40
2022-08-04T03:31:52.206Z,63.60
2022-08-04T03:34:43.435Z,65.40
2022-08-04T03:37:40.972Z,68.00
2022-08-04T03:40:29.529Z,71.50
2022-08-04T03:43:57.920Z,74.20
2022-08-04T03:46:28.882Z,77.80
2022-08-04T03:49:27.408Z,77.60
2022-08-04T03:52:25.139Z,73.60
2022-08-04T03:54:51.873Z,72.70
2022-08-04T03:57:39.677Z,73.80
2022-08-04T04:00:15.757Z,76.50
2022-08-04T04:03:01.155Z,74.70
2022-08-04T04:05:43.176Z,74.10
2022-08-04T04:09:02.158Z,77.60
2022-08-04T04:11:54.516Z,78.30
2022-08-04T04:14:49.977Z,78.50
2022-08-04T04:17:32.709Z,78.40
2022-08-04T04:20:20.870Z,80.00
2022-08-04T04:23:02.724Z,81.00
2022-08-04T04:26:00.551Z,80.50
2022-08-04T04:28:44.487Z,81.40
2022-08-04T04:31:27.641Z,84.20
2022-08-04T04:34:06.322Z,84.60
2022-08-04T04:37:05.588Z,83.90
2022-08-04T04:39:55.064Z,83.30
2022-08-04T04:42:59.338Z,84.50
2022-08-04T04:45:59.873Z,84.40
2022-08-04T04:48:33.845Z,84.70
2022-08-04T04:51:28.781Z,85.20
2022-08-04T04:54:21.712Z,83.30
2022-08-04T04:57:07.477Z,81.40
2022-08-04T04:59:39.569Z,82.40
2022-08-04T05:02:18.237Z,82.60
2022-08-04T05:05:13.717Z,83.10
2022-08-04T05:08:43.670Z,82.90
2022-08-04T05:11:06.554Z,82.20
2022-08-04T05:14:35.802Z,77.00
2022-08-04T05:16:27.436Z,74.30
2022-08-04T05:19:53.333Z,70.00
2022-08-04T05:22:35.321Z,68.00
2022-08-04T05:25:12.398Z,65.90
2022-08-04T05:27:50.245Z,67.20
2022-08-04T05:30:18.643Z,69.70
2022-08-04T05:32:50.120Z,72.30
2022-08-04T05:35:47.815Z,73.10
2022-08-04T05:38:26.618Z,70.50
2022-08-04T05:40:55.578Z,63.00
2022-08-04T05:43:24.208Z,63.60
2022-08-04T05:45:52.541Z,61.30
2022-08-04T05:48:19.446Z,60.80
2022-08-04T05:50:47.516Z,58.00
2022-08-04T05:53:16.752Z,54.70
2022-08-04T05:55:56.634Z,43.10
2022-08-04T05:58:30.970Z,33.20
2022-08-04T06:01:01.808Z,32.30
2022-08-04T06:03:31.095Z,30.20
2022-08-04T06:05:59.122Z,35.50
2022-08-04T06:08:26.324Z,33.40
2022-08-04T06:10:56.069Z,27.30
2022-08-04T06:13:49.649Z,21.90
2022-08-04T06:16:28.885Z,18.90
2022-08-04T06:19:59.694Z,14.00
2022-08-04T06:21:55.319Z,9.20
2022-08-04T06:24:26.244Z,7.10
2022-08-04T06:26:54.414Z,5.70
2022-08-04T06:29:50.662Z,1.70
2022-08-04T06:32:35.580Z,1.00
2022-08-04T06:35:06.852Z,1.00
2022-08-04T06:37:41.908Z,1.00
2022-08-04T06:40:31.122Z,1.00
2022-08-04T06:43:05.519Z,1.00
2022-08-04T06:45:35.568Z,1.00
2022-08-04T06:48:03.968Z,1.00
2022-08-04T06:51:27.743Z,1.00
2022-08-04T06:53:20.837Z,1.00
2022-08-04T06:55:49.020Z,1.00
2022-08-04T06:58:17.593Z,1.00
2022-08-04T07:00:46.985Z,1.00
2022-08-04T07:03:15.928Z,1.00
2022-08-04T07:05:43.308Z,1.00
2022-08-04T07:08:11.588Z,1.00
2022-08-04T07:10:39.257Z,1.00
2022-08-04T07:13:07.597Z,1.00
2022-08-04T07:15:36.641Z,1.00
2022-08-04T07:18:06.261Z,1.00
2022-08-04T07:20:36.533Z,1.00
2022-08-04T07:23:05.552Z,1.00
2022-08-04T07:26:11.337Z,1.00
2022-08-04T07:28:23.895Z,1.00
2022-08-04T07:30:51.033Z,1.00
2022-08-04T07:33:18.708Z,1.00
2022-08-04T07:36:04.909Z,1.00
2022-08-04T07:38:37.558Z,1.00
2022-08-04T07:41:37.969Z,1.00
2022-08-04T07:43:54.955Z,1.00
2022-08-04T07:46:22.110Z,1.00
2022-08-04T07:48:49.374Z,1.00
2022-08-04T07:51:17.265Z,1.00
2022-08-04T07:53:54.165Z,1.00
2022-08-04T07:56:22.705Z,1.00
2022-08-04T07:58:49.931Z,1.00
2022-08-04T08:01:18.959Z,1.00
2022-08-04T08:03:46.802Z,1.00
2022-08-04T08:06:18.088Z,1.00
2022-08-04T08:09:12.425Z,1.00
2022-08-04T08:12:35.441Z,1.00
2022-08-04T08:14:36.140Z,1.00
2022-08-04T08:17:04.387Z,1.00
2022-08-04T08:19:32.478Z,1.00
2022-08-04T08:22:01.178Z,1.00
2022-08-04T08:24:30.310Z,1.00
2022-08-04T08:26:58.192Z,1.00
2022-08-04T08:29:25.982Z,1.00
2022-08-04T08:31:56.343Z,1.00
2022-08-04T08:34:27.996Z,1.00
2022-08-04T08:37:17.706Z,1.00
2022-08-04T08:40:07.512Z,1.00
2022-08-04T08:42:53.936Z,1.00
2022-08-04T08:45:33.108Z,1.00
2022-08-04T08:48:37.656Z,1.00
2022-08-04T08:51:34.212Z,1.00
2022-08-04T08:54:22.609Z,1.00
2022-08-04T08:57:10.395Z,1.00
2022-08-04T09:00:00.833Z,1.00
2022-08-04T09:02:46.381Z,1.00
2022-08-04T09:05:25.264Z,1.00
2022-08-04T09:08:27.425Z,1.00
2022-08-04T09:11:09.980Z,1.00
2022-08-04T09:13:39.847Z,1.00
2022-08-04T09:16:17.218Z,1.00
2022-08-04T09:18:52.797Z,1.00
2022-08-04T09:21:25.229Z,1.00
2022-08-04T09:24:35.616Z,1.00
2022-08-04T09:27:03.483Z,1.00
2022-08-04T09:29:36.060Z,1.00
2022-08-04T09:32:23.848Z,1.00
2022-08-04T09:35:15.696Z,1.00
2022-08-04T09:37:57.703Z,1.00
2022-08-04T09:40:55.240Z,1.00
2022-08-04T09:44:52.420Z,1.00
2022-08-04T09:47:03.948Z,1.00
2022-08-04T09:49:42.825Z,1.00
2022-08-04T09:52:44.582Z,1.00
2022-08-04T09:55:31.763Z,1.00
2022-08-04T09:58:11.608Z,1.00
2022-08-04T10:00:53.462Z,1.00
2022-08-04T10:03:25.381Z,1.00
2022-08-04T10:06:08.711Z,1.00
2022-08-04T10:08:55.253Z,1.00
2022-08-04T10:11:55.681Z,1.00
2022-08-04T10:15:00.946Z,1.00
2022-08-04T10:17:30.704Z,1.00
2022-08-04T10:20:34.041Z,1.00
2022-08-04T10:23:21.376Z,1.00
2022-08-04T10:26:15.890Z,1.00
2022-08-04T10:28:53.513Z,1.00
2022-08-04T10:31:26.589Z,1.00
2022-08-04T10:34:17.633Z,1.00
2022-08-04T10:37:15.079Z,1.00
2022-08-04T10:40:24.366Z,1.00
2022-08-04T10:43:03.968Z,1.00
2022-08-04T10:45:41.861Z,1.00
2022-08-04T10:48:34.125Z,1.00
2022-08-04T10:51:27.715Z,1.00
2022-08-04T10:54:31.276Z,1.00
2022-08-04T10:57:30.641Z,1.00
2022-08-04T11:00:04.625Z,1.00
2022-08-04T11:02:37.830Z,1.00
2022-08-04T11:05:23.075Z,1.00
2022-08-04T11:07:56.177Z,1.00
2022-08-04T11:10:25.572Z,1.00
2022-08-04T11:12:57.946Z,1.00
2022-08-04T11:15:51.684Z,1.00
2022-08-04T11:18:43.239Z,1.00
2022-08-04T11:21:12.557Z,1.00
2022-08-04T11:23:48.026Z,1.00
2022-08-04T11:26:29.461Z,1.00
2022-08-04T11:29:11.968Z,1.00
2022-08-04T11:31:49.745Z,1.00
2022-08-04T11:34:26.647Z,1.00
2022-08-04T11:37:03.041Z,1.00
2022-08-04T11:39:35.545Z,1.00
2022-08-04T11:42:07.830Z,1.00
2022-08-04T11:44:43.380Z,1.00
2022-08-04T11:47:24.656Z,1.00
2022-08-04T11:50:20.343Z,1.00
2022-08-04T11:52:49.989Z,1.00
2022-08-04T11:55:21.254Z,1.00
2022-08-04T11:57:53.989Z,1.00
2022-08-04T12:00:22.742Z,1.00
2022-08-04T12:02:59.889Z,1.00
2022-08-04T12:05:37.074Z,1.00
2022-08-04T12:08:23.064Z,1.00
2022-08-04T12:11:11.392Z,1.00
2022-08-04T12:13:48.937Z,1.00
2022-08-04T12:16:30.476Z,1.00
2022-08-04T12:19:10.061Z,1.00
2022-08-04T12:21:53.254Z,1.00
2022-08-04T12:24:39.502Z,1.00
2022-08-04T12:27:47.986Z,1.00
2022-08-04T12:30:59.156Z,1.00
2022-08-04T12:33:12.776Z,1.00
2022-08-04T12:36:11.323Z,1.00
2022-08-04T12:38:50.306Z,1.00
2022-08-04T12:41:24.780Z,1.00
2022-08-04T12:43:51.677Z,1.00
2022-08-04T12:46:27.395Z,1.00
2022-08-04T12:49:01.509Z,1.00
2022-08-04T12:52:06.555Z,1.00
2022-08-04T12:54:29.068Z,1.00
2022-08-04T12:56:59.805Z,1.00
2022-08-04T12:59:26.697Z,1.00
2022-08-04T13:02:07.511Z,1.00
2022-08-04T13:04:42.418Z,1.00
2022-08-04T13:07:20.877Z,1.00
2022-08-04T13:09:48.375Z,1.00
2022-08-04T13:12:19.112Z,1.00
2022-08-04T13:14:50.395Z,1.00
2022-08-04T13:17:17.633Z,1.00
2022-08-04T13:19:50.233Z,1.00
2022-08-04T13:22:28.570Z,1.00
2022-08-04T13:26:40.579Z,1.00
2022-08-04T13:27:48.221Z,1.00
2022-08-04T13:30:23.067Z,1.00
2022-08-04T13:33:16.153Z,1.00
2022-08-04T13:35:56.151Z,1.00
2022-08-04T13:38:25.563Z,1.00
2022-08-04T13:40:52.906Z,1.00
2022-08-04T13:43:48.446Z,1.00
2022-08-04T13:46:27.270Z,1.00
2022-08-04T13:49:26.043Z,1.00
2022-08-04T13:51:58.254Z,1.00
2022-08-04T13:54:30.395Z,1.00
2022-08-04T13:57:00.426Z,1.00
2022-08-04T13:59:33.312Z,1.00
2022-08-04T14:02:07.900Z,1.00
2022-08-04T14:04:49.824Z,1.00
2022-08-04T14:07:21.322Z,1.00
2022-08-04T14:10:02.637Z,1.00
2022-08-04T14:12:38.655Z,1.00
2022-08-04T14:16:02.045Z,1.00
2022-08-04T14:18:30.206Z,1.00
2022-08-04T14:21:11.278Z,1.00
2022-08-04T14:23:47.018Z,1.00
2022-08-04T14:26:41.016Z,1.00
2022-08-04T14:29:28.545Z,1.00
2022-08-04T14:32:22.912Z,1.00
2022-08-04T14:34:52.893Z,1.00
2022-08-04T14:37:22.471Z,1.00
2022-08-04T14:40:08.806Z,1.00
2022-08-04T14:42:54.457Z,1.00
2022-08-04T14:45:54.872Z,1.00
2022-08-04T14:48:22.810Z,1.00
2022-08-04T14:50:51.133Z,1.00
2022-08-04T14:53:26.360Z,1.00
2022-08-04T14:55:56.896Z,1.00
2022-08-04T14:58:38.835Z,1.00
2022-08-04T15:01:12.736Z,1.00
2022-08-04T15:03:50.058Z,1.00
2022-08-04T15:06:25.994Z,1.00
2022-08-04T15:08:55.947Z,1.00
2022-08-04T15:11:24.470Z,1.00
2022-08-04T15:13:56.365Z,1.00
2022-08-04T15:16:25.172Z,1.00
2022-08-04T15:18:54.853Z,1.00
2022-08-04T15:21:25.859Z,1.00
2022-08-04T15:23:52.776Z,1.00
2022-08-04T15:26:42.899Z,1.00
2022-08-04T15:30:01.330Z,1.00
2022-08-04T15:32:32.273Z,1.00
2022-08-04T15:35:04.596Z,1.00
2022-08-04T15:37:46.364Z,1.00
2022-08-04T15:40:27.075Z,1.00
2022-08-04T15:43:09.417Z,1.00
2022-08-04T15:46:42.298Z,1.00
2022-08-04T15:48:52.182Z,1.00
2022-08-04T15:51:32.792Z,1.00
2022-08-04T15:54:02.610Z,1.00
2022-08-04T15:56:30.518Z,1.00
2022-08-04T15:58:57.649Z,1.00
2022-08-04T16:01:25.256Z,1.00
2022-08-04T16:04:01.488Z,1.00
2022-08-04T16:06:29.044Z,1.00
2022-08-04T16:09:04.641Z,1.00
2022-08-04T16:11:32.904Z,1.00
2022-08-04T16:14:00.144Z,1.00
2022-08-04T16:16:49.906Z,1.00
2022-08-04T16:19:22.897Z,1.00
2022-08-04T16:22:00.113Z,1.00
2022-08-04T16:24:37.109Z,1.00
2022-08-04T16:27:11.950Z,1.00
2022-08-04T16:29:40.133Z,1.00
2022-08-04T16:32:11.800Z,1.00
2022-08-04T16:34:48.482Z,1.00
2022-08-04T16:37:19.417Z,1.00
2022-08-04T16:39:50.432Z,1.00
2022-08-04T16:42:30.832Z,1.00
2022-08-04T16:45:11.449Z,1.00
2022-08-04T16:47:47.219Z,1.00
2022-08-04T16:50:18.052Z,1.00
2022-08-04T16:52:55.354Z,1.00
2022-08-04T16:55:25.374Z,1.00
2022-08-04T16:57:54.735Z,1.00
2022-08-04T17:00:36.274Z,1.00
2022-08-04T17:03:07.954Z,1.00
2022-08-04T17:05:38.935Z,1.00
2022-08-04T17:08:29.183Z,1.00
2022-08-04T17:10:55.332Z,1.00
2022-08-04T17:14:03.634Z,1.00
2022-08-04T17:16:29.264Z,1.00
2022-08-04T17:18:56.409Z,1.00
2022-08-04T17:21:27.054Z,1.00
2022-08-04T17:24:15.932Z,1.00
2022-08-04T17:26:51.765Z,1.00
2022-08-04T17:29:22.710Z,1.00
2022-08-04T17:32:14.851Z,1.00
2022-08-04T17:34:41.886Z,1.00
2022-08-04T17:37:40.726Z,1.00
2022-08-04T17:40:18.570Z,1.00
2022-08-04T17:43:03.253Z,1.00
2022-08-04T17:46:28.526Z,1.00
2022-08-04T17:49:10.409Z,1.00
2022-08-04T17:52:04.478Z,1.00
2022-08-04T17:54:37.312Z,1.00
2022-08-04T17:57:19.688Z,1.00
2022-08-04T17:59:56.318Z,1.00
2022-08-04T18:02:32.448Z,1.00
2022-08-04T18:05:06.932Z,1.00
2022-08-04T18:08:38.746Z,1.00
2022-08-04T18:10:52.575Z,1.00
2022-08-04T18:13:25.338Z,1.00
2022-08-04T18:16:02.574Z,1.00
2022-08-04T18:18:29.993Z,1.00
2022-08-04T18:20:59.550Z,1.00
2022-08-04T18:23:31.350Z,1.00
2022-08-04T18:25:59.427Z,1.00
2022-08-04T18:28:30.820Z,1.00
2022-08-04T18:31:00.311Z,1.00
2022-08-04T18:33:41.032Z,1.00
2022-08-04T18:36:35.869Z,1.00
2022-08-04T18:39:12.686Z,1.00
2022-08-04T18:42:01.823Z,1.00
2022-08-04T18:44:31.020Z,1.00
2022-08-04T18:47:19.742Z,1.00
2022-08-04T18:52:32.297Z,1.00
2022-08-04T18:55:01.880Z,1.00
2022-08-04T18:58:01.241Z,1.00
2022-08-04T19:00:20.302Z,1.00
2022-08-04T19:02:47.646Z,1.00
2022-08-04T19:05:17.244Z,1.00
2022-08-04T19:08:11.334Z,1.00
2022-08-04T19:10:31.705Z,1.00
2022-08-04T19:12:59.412Z,1.00
2022-08-04T19:15:34.174Z,1.00
2022-08-04T19:18:02.126Z,1.00
2022-08-04T19:20:29.801Z,1.00
2022-08-04T19:24:10.454Z,1.00
2022-08-04T19:26:02.925Z,1.00
2022-08-04T19:28:37.632Z,1.00
2022-08-04T19:31:07.663Z,1.00
2022-08-04T19:33:59.210Z,1.00
2022-08-04T19:36:28.345Z,1.00
2022-08-04T19:39:00.287Z,1.00
2022-08-04T19:41:29.595Z,1.00
2022-08-04T19:43:58.166Z,1.00
2022-08-04T19:46:27.876Z,1.00
2022-08-04T19:48:59.004Z,1.00
2022-08-04T19:51:32.890Z,1.00
2022-08-04T19:54:02.740Z,1.00
2022-08-04T19:59:21.738Z,1.00
2022-08-04T20:01:49.633Z,1.00
2022-08-04T20:04:16.593Z,1.00
2022-08-04T20:06:43.867Z,1.00
2022-08-04T20:09:24.910Z,1.00
2022-08-04T20:11:55.283Z,1.00
2022-08-04T20:14:32.466Z,1.00
2022-08-04T20:17:10.328Z,1.00
2022-08-04T20:19:38.488Z,1.00
2022-08-04T20:22:05.981Z,1.00
2022-08-04T20:25:00.961Z,1.00
2022-08-04T20:28:00.186Z,1.00
2022-08-04T20:30:28.306Z,1.00
2022-08-04T20:32:55.447Z,1.00
2022-08-04T20:38:33.568Z,1.00
2022-08-04T20:41:00.264Z,1.00
2022-08-04T20:43:28.312Z,1.00
2022-08-04T20:45:59.286Z,1.00
2022-08-04T20:48:33.560Z,1.00
2022-08-04T20:51:00.776Z,1.00
2022-08-04T20:53:40.666Z,1.00
2022-08-04T20:56:19.005Z,1.00
2022-08-04T20:58:58.772Z,1.00
2022-08-04T21:01:27.082Z,1.00
2022-08-04T21:04:27.337Z,1.00
2022-08-04T21:06:57.389Z,1.00
2022-08-04T21:09:37.546Z,1.00
2022-08-04T21:12:11.029Z,1.00
2022-08-04T21:14:57.307Z,1.00
2022-08-04T21:17:59.383Z,1.00
2022-08-04T21:20:16.910Z,1.00
2022-08-04T21:22:54.404Z,1.00
2022-08-04T21:25:22.298Z,1.00
2022-08-04T21:27:49.814Z,1.00
2022-08-04T21:30:24.126Z,1.00
2022-08-04T21:32:55.080Z,1.00
2022-08-04T21:35:26.707Z,1.00
2022-08-04T21:38:04.130Z,1.00
2022-08-04T21:43:42.986Z,1.00
2022-08-04T21:46:11.320Z,1.00
2022-08-04T21:48:39.183Z,1.00
2022-08-04T21:51:58.807Z,1.00
2022-08-04T21:54:02.901Z,1.00
2022-08-04T21:56:30.390Z,1.00
2022-08-04T21:58:58.995Z,1.00
2022-08-04T22:01:50.369Z,1.00
2022-08-04T22:04:13.654Z,1.00
2022-08-04T22:06:40.594Z,1.00
2022-08-04T22:09:14.480Z,1.00
2022-08-04T22:11:50.264Z,1.00
2022-08-04T22:14:29.235Z,1.00
2022-08-04T22:17:00.961Z,1.00
2022-08-04T22:19:39.679Z,1.00
2022-08-04T22:22:09.599Z,1.00
2022-08-04T22:24:41.052Z,1.00
2022-08-04T22:27:11.995Z,1.00
2022-08-04T22:29:39.194Z,1.00
2022-08-04T22:32:06.671Z,1.00
2022-08-04T22:34:40.162Z,1.00
2022-08-04T22:37:12.836Z,1.00
2022-08-04T22:39:56.637Z,1.00
2022-08-04T22:42:24.443Z,1.00
2022-08-04T22:44:52.224Z,1.00
2022-08-04T22:47:20.239Z,1.00
2022-08-04T22:50:01.635Z,1.00
2022-08-04T22:52:37.321Z,1.00
2022-08-04T22:55:22.905Z,1.00
2022-08-04T22:58:05.310Z,1.00
2022-08-04T23:00:36.292Z,1.00
2022-08-04T23:03:07.035Z,1.00
2022-08-04T23:05:38.107Z,1.00
2022-08-04T23:08:05.434Z,1.00
2022-08-04T23:10:34.116Z,1.00
2022-08-04T23:13:02.583Z,1.00
2022-08-04T23:15:33.866Z,1.00
2022-08-04T23:18:00.948Z,1.00
2022-08-04T23:20:32.931Z,1.00
2022-08-04T23:23:14.674Z,1.00
2022-08-04T23:26:07.560Z,1.30
2022-08-04T23:28:31.528Z,1.40
2022-08-04T23:30:58.404Z,1.10
2022-08-04T23:33:50.566Z,1.30
2022-08-04T23:36:12.124Z,1.30
2022-08-04T23:38:39.327Z,2.20
2022-08-04T23:41:13.533Z,2.50
2022-08-04T23:43:54.953Z,3.10
2022-08-04T23:46:22.889Z,4.30
2022-08-04T23:48:51.028Z,3.10
2022-08-04T23:51:19.081Z,2.70
2022-08-04T23:54:03.710Z,3.80
2022-08-04T23:56:33.093Z,3.50
2022-08-04T23:59:03.937Z,3.10
